Time;durP1;ratioP1;P1;durP2;ratioP2;P2;SDS_P1;SDS_P2;PMS_P1;PMS_P2;Temp;Humidity;BMP_temperature;BMP_pressure;BME280_temperature;BME280_humidity;BME280_pressure;Samples;Min_cycle;Max_cycle;Signal;HPM_P1;HPM_P2
2023/06/14 00:00:14;;;;;;;8.77;1.90;;;;;;;;;;4909992;29;20111;-84
2023/06/14 00:02:41;;;;;;;4.75;2.00;;;;;;;;;;4931556;29;20524;-85
2023/06/14 00:05:06;;;;;;;4.07;1.80;;;;;;;;;;4921519;29;20035;-84
2023/06/14 00:07:36;;;;;;;5.63;1.70;;;;;;;;;;4924091;29;20050;-85
2023/06/14 00:10:03;;;;;;;3.17;1.48;;;;;;;;;;4930382;29;20028;-85
2023/06/14 00:12:28;;;;;;;4.65;1.95;;;;;;;;;;4933986;29;20031;-85
2023/06/14 00:14:54;;;;;;;3.67;1.60;;;;;;;;;;4923404;29;20032;-84
2023/06/14 00:17:20;;;;;;;4.13;1.77;;;;;;;;;;4934834;29;20024;-85
2023/06/14 00:19:46;;;;;;;3.40;1.60;;;;;;;;;;4909789;29;20131;-85
2023/06/14 00:22:12;;;;;;;6.55;1.80;;;;;;;;;;4928225;29;20038;-85
2023/06/14 00:24:37;;;;;;;3.75;1.80;;;;;;;;;;4923147;29;20515;-84
2023/06/14 00:27:03;;;;;;;5.20;1.50;;;;;;;;;;4940279;29;20465;-84
2023/06/14 00:29:28;;;;;;;5.70;1.83;;;;;;;;;;4956436;29;20051;-85
2023/06/14 00:31:54;;;;;;;8.35;1.52;;;;;;;;;;4935547;29;20567;-85
2023/06/14 00:34:19;;;;;;;6.15;1.92;;;;;;;;;;4939252;29;20054;-86
2023/06/14 00:36:45;;;;;;;9.80;1.70;;;;;;;;;;4982581;23;20060;-81
2023/06/14 00:39:13;;;;;;;6.13;2.13;;;;;;;;;;4892071;29;20031;-79
2023/06/14 00:41:39;;;;;;;7.38;2.10;;;;;;;;;;4912496;29;20524;-80
2023/06/14 00:44:05;;;;;;;3.75;1.70;;;;;;;;;;4937830;29;20508;-79
2023/06/14 00:46:30;;;;;;;3.22;1.80;;;;;;;;;;4917192;29;20062;-78
2023/06/14 00:48:58;;;;;;;3.65;1.58;;;;;;;;;;4934869;29;20027;-79
2023/06/14 00:51:24;;;;;;;7.05;2.15;;;;;;;;;;4924110;29;20543;-80
2023/06/14 00:53:50;;;;;;;5.85;1.80;;;;;;;;;;4930433;29;20024;-77
2023/06/14 00:56:16;;;;;;;6.13;1.90;;;;;;;;;;4930849;29;20484;-78
2023/06/14 00:58:41;;;;;;;8.98;2.17;;;;;;;;;;4940384;29;20034;-78
2023/06/14 01:01:07;;;;;;;7.57;1.80;;;;;;;;;;4934720;29;20416;-79
2023/06/14 01:03:33;;;;;;;5.15;1.90;;;;;;;;;;4925109;29;20031;-78
2023/06/14 01:06:04;;;;;;;5.28;2.45;;;;;;;;;;4928554;29;20040;-80
2023/06/14 01:08:51;;;;;;;4.57;1.98;;;;;;;;;;4932312;29;20070;-78
2023/06/14 01:11:23;;;;;;;4.05;1.63;;;;;;;;;;4924644;29;20031;-78
2023/06/14 01:13:50;;;;;;;3.47;1.80;;;;;;;;;;4947214;29;20030;-79
2023/06/14 01:16:16;;;;;;;4.97;1.90;;;;;;;;;;4947631;29;20397;-80
2023/06/14 01:18:47;;;;;;;7.32;1.85;;;;;;;;;;4940209;29;20118;-79
2023/06/14 01:21:20;;;;;;;3.83;1.75;;;;;;;;;;4907131;29;20062;-80
2023/06/14 01:23:52;;;;;;;5.80;2.03;;;;;;;;;;4946989;29;20519;-81
2023/06/14 01:26:19;;;;;;;4.45;1.80;;;;;;;;;;4949038;29;20038;-83
2023/06/14 01:28:48;;;;;;;4.55;1.80;;;;;;;;;;4940863;29;20111;-80
2023/06/14 01:31:16;;;;;;;7.43;2.08;;;;;;;;;;4943296;29;20035;-81
2023/06/14 01:33:43;;;;;;;6.28;1.92;;;;;;;;;;4930083;29;20032;-79
2023/06/14 01:36:09;;;;;;;3.30;2.20;;;;;;;;;;4947240;29;20032;-80
2023/06/14 01:38:36;;;;;;;4.05;1.92;;;;;;;;;;4961234;29;20105;-81
2023/06/14 01:41:02;;;;;;;5.13;2.13;;;;;;;;;;4949044;29;20616;-80
2023/06/14 01:43:29;;;;;;;5.85;1.73;;;;;;;;;;4964914;29;20513;-79
2023/06/14 01:45:56;;;;;;;5.05;2.10;;;;;;;;;;4942497;29;20098;-78
2023/06/14 01:48:21;;;;;;;4.07;2.00;;;;;;;;;;4945808;29;20055;-79
2023/06/14 01:50:48;;;;;;;6.30;2.00;;;;;;;;;;4918561;29;20062;-80
2023/06/14 01:53:14;;;;;;;3.95;2.22;;;;;;;;;;4891107;29;20501;-78
2023/06/14 01:55:43;;;;;;;6.13;1.98;;;;;;;;;;4947275;29;20058;-81
2023/06/14 01:58:08;;;;;;;;;;;;;;;;;;4928963;29;20039;-80
2023/06/14 02:00:34;;;;;;;4.00;1.95;;;;;;;;;;4922495;29;20376;-83
2023/06/14 02:03:00;;;;;;;6.82;2.03;;;;;;;;;;4933447;29;20468;-79
2023/06/14 02:05:26;;;;;;;4.32;2.00;;;;;;;;;;4917382;29;20043;-82
2023/06/14 02:07:53;;;;;;;4.85;2.20;;;;;;;;;;4942569;29;20035;-80
2023/06/14 02:10:18;;;;;;;4.10;2.13;;;;;;;;;;4923468;29;20043;-79
2023/06/14 02:12:44;;;;;;;3.28;1.98;;;;;;;;;;4932347;29;20166;-81
2023/06/14 02:15:16;;;;;;;4.22;2.38;;;;;;;;;;4938395;29;20078;-84
2023/06/14 02:17:46;;;;;;;7.38;2.33;;;;;;;;;;4929769;29;20039;-81
2023/06/14 02:20:12;;;;;;;5.22;2.13;;;;;;;;;;4928547;29;20110;-85
2023/06/14 02:22:38;;;;;;;8.60;2.08;;;;;;;;;;4939260;29;20492;-85
2023/06/14 02:25:07;;;;;;;6.57;1.70;;;;;;;;;;4933867;29;20040;-82
2023/06/14 02:27:34;;;;;;;3.58;1.95;;;;;;;;;;4924203;29;20647;-81
2023/06/14 02:30:00;;;;;;;6.13;2.00;;;;;;;;;;4928321;29;20036;-81
2023/06/14 02:32:27;;;;;;;3.10;1.80;;;;;;;;;;4932554;29;20031;-85
2023/06/14 02:34:53;;;;;;;3.13;1.60;;;;;;;;;;4936737;29;20492;-83
2023/06/14 02:37:18;;;;;;;4.57;1.90;;;;;;;;;;4921889;29;20543;-81
2023/06/14 02:39:45;;;;;;;3.38;1.70;;;;;;;;;;4936745;29;20039;-79
2023/06/14 02:42:11;;;;;;;4.95;1.75;;;;;;;;;;4925874;29;20066;-79
2023/06/14 02:44:36;;;;;;;5.47;2.70;;;;;;;;;;4934012;29;20042;-80
2023/06/14 02:47:02;;;;;;;6.43;2.05;;;;;;;;;;4893827;29;20035;-86
2023/06/14 02:49:28;;;;;;;3.90;1.90;;;;;;;;;;4925677;29;20023;-80
2023/06/14 02:51:54;;;;;;;3.22;1.83;;;;;;;;;;4947156;29;20023;-80
2023/06/14 02:54:19;;;;;;;8.45;1.75;;;;;;;;;;4913761;29;20050;-79
2023/06/14 02:56:45;;;;;;;5.32;2.00;;;;;;;;;;4920704;29;20481;-81
2023/06/14 02:59:11;;;;;;;4.90;1.90;;;;;;;;;;4950271;29;20028;-79
2023/06/14 03:01:39;;;;;;;5.63;2.00;;;;;;;;;;4908400;29;20488;-79
2023/06/14 03:04:07;;;;;;;4.55;2.30;;;;;;;;;;4926102;29;20036;-80
2023/06/14 03:06:35;;;;;;;4.05;1.88;;;;;;;;;;4931285;29;20046;-79
2023/06/14 03:09:04;;;;;;;3.50;1.90;;;;;;;;;;4903603;29;20051;-83
2023/06/14 03:11:31;;;;;;;4.18;2.38;;;;;;;;;;4916074;29;20057;-80
2023/06/14 03:13:57;;;;;;;4.80;2.17;;;;;;;;;;4931187;29;20027;-79
2023/06/14 03:16:25;;;;;;;3.42;1.77;;;;;;;;;;4918382;29;20121;-83
2023/06/14 03:18:51;;;;;;;5.90;1.58;;;;;;;;;;4924169;29;20134;-83
2023/06/14 03:21:17;;;;;;;11.52;2.42;;;;;;;;;;4924183;29;20031;-81
2023/06/14 03:23:44;;;;;;;6.30;2.05;;;;;;;;;;4932580;29;20043;-83
2023/06/14 03:26:14;;;;;;;4.32;1.95;;;;;;;;;;4932506;29;20031;-83
2023/06/14 03:28:41;;;;;;;4.97;2.13;;;;;;;;;;4927112;29;20028;-82
2023/06/14 03:31:08;;;;;;;9.43;2.88;;;;;;;;;;4938320;29;20113;-82
2023/06/14 03:33:35;;;;;;;4.40;2.25;;;;;;;;;;4943562;29;20027;-80
2023/06/14 03:36:02;;;;;;;7.20;2.53;;;;;;;;;;4921242;29;20120;-80
2023/06/14 03:38:27;;;;;;;3.80;2.05;;;;;;;;;;4927812;29;20039;-79
2023/06/14 03:40:52;;;;;;;6.30;1.95;;;;;;;;;;4921100;29;20028;-79
2023/06/14 03:43:18;;;;;;;3.83;1.83;;;;;;;;;;4935368;29;20024;-80
2023/06/14 03:45:44;;;;;;;5.07;2.10;;;;;;;;;;4927796;29;20047;-79
2023/06/14 03:48:10;;;;;;;5.30;2.10;;;;;;;;;;4928890;29;20401;-80
2023/06/14 03:50:37;;;;;;;6.32;2.17;;;;;;;;;;4929119;29;20032;-79
2023/06/14 03:53:03;;;;;;;11.50;3.10;;;;;;;;;;4936118;29;20107;-78
2023/06/14 03:55:33;;;;;;;5.55;1.85;;;;;;;;;;4910636;29;20039;-81
2023/06/14 03:57:59;;;;;;;;;;;;;;;;;;4934877;29;20031;-81
2023/06/14 04:00:25;;;;;;;8.50;2.33;;;;;;;;;;4943535;29;19922;-81
2023/06/14 04:02:51;;;;;;;5.15;2.22;;;;;;;;;;4920964;29;20040;-79
2023/06/14 04:05:19;;;;;;;3.65;1.98;;;;;;;;;;4935487;29;20055;-80
2023/06/14 04:07:48;;;;;;;4.25;2.15;;;;;;;;;;4927932;29;20493;-81
2023/06/14 04:10:15;;;;;;;6.70;2.20;;;;;;;;;;4928259;29;20066;-78
2023/06/14 04:12:40;;;;;;;11.93;2.20;;;;;;;;;;4934911;29;20039;-80
2023/06/14 04:15:07;;;;;;;8.27;2.53;;;;;;;;;;4940232;29;20039;-82
2023/06/14 04:17:34;;;;;;;6.00;2.00;;;;;;;;;;4933070;29;20051;-80
2023/06/14 04:20:00;;;;;;;3.90;2.03;;;;;;;;;;4913858;29;20027;-82
2023/06/14 04:22:28;;;;;;;7.13;2.22;;;;;;;;;;4925077;29;20032;-80
2023/06/14 04:24:59;;;;;;;6.10;2.05;;;;;;;;;;4918366;29;20118;-81
2023/06/14 04:27:26;;;;;;;4.10;2.35;;;;;;;;;;4942609;23;20055;-83
2023/06/14 04:29:59;;;;;;;6.15;2.47;;;;;;;;;;4930386;29;20119;-79
2023/06/14 04:32:33;;;;;;;4.57;2.30;;;;;;;;;;4933811;29;20039;-82
2023/06/14 04:35:01;;;;;;;5.45;2.17;;;;;;;;;;4907357;29;20058;-80
2023/06/14 04:37:29;;;;;;;7.97;2.40;;;;;;;;;;4933291;29;20555;-79
2023/06/14 04:39:55;;;;;;;5.65;2.53;;;;;;;;;;4954536;29;20020;-80
2023/06/14 04:42:24;;;;;;;3.42;1.90;;;;;;;;;;4958306;23;20056;-77
2023/06/14 04:44:51;;;;;;;7.32;3.20;;;;;;;;;;4931626;29;20035;-76
2023/06/14 04:47:17;;;;;;;8.80;2.78;;;;;;;;;;4919969;29;20117;-75
2023/06/14 04:49:43;;;;;;;7.05;2.88;;;;;;;;;;4912510;29;20036;-77
2023/06/14 04:52:10;;;;;;;6.93;3.72;;;;;;;;;;4907395;29;20425;-78
2023/06/14 04:54:44;;;;;;;6.47;2.65;;;;;;;;;;4870536;29;20513;-79
2023/06/14 04:57:17;;;;;;;5.38;2.20;;;;;;;;;;4888243;29;20031;-77
2023/06/14 04:59:44;;;;;;;6.63;2.80;;;;;;;;;;4908541;29;20028;-77
2023/06/14 05:02:11;;;;;;;4.82;2.40;;;;;;;;;;4907750;29;20047;-76
2023/06/14 05:04:39;;;;;;;8.35;3.00;;;;;;;;;;4901683;29;20040;-75
2023/06/14 05:07:09;;;;;;;11.67;2.77;;;;;;;;;;4914312;29;20101;-77
2023/06/14 05:09:35;;;;;;;5.22;2.50;;;;;;;;;;4887583;29;20127;-77
2023/06/14 05:12:01;;;;;;;6.20;2.72;;;;;;;;;;4890501;29;20028;-78
2023/06/14 05:14:28;;;;;;;8.90;2.83;;;;;;;;;;4894752;29;20115;-78
2023/06/14 05:16:57;;;;;;;10.40;3.70;;;;;;;;;;4884328;29;20051;-77
2023/06/14 05:19:23;;;;;;;7.03;3.53;;;;;;;;;;4894151;29;20029;-76
2023/06/14 05:21:49;;;;;;;4.88;2.70;;;;;;;;;;4909843;29;20032;-78
2023/06/14 05:24:18;;;;;;;5.88;2.72;;;;;;;;;;4903966;29;20038;-76
2023/06/14 05:26:44;;;;;;;7.38;2.70;;;;;;;;;;4916965;29;20043;-77
2023/06/14 05:29:11;;;;;;;11.80;3.20;;;;;;;;;;4909640;29;20032;-78
2023/06/14 05:31:37;;;;;;;6.07;2.85;;;;;;;;;;4918965;29;20061;-77
2023/06/14 05:34:04;;;;;;;8.63;3.10;;;;;;;;;;4898243;29;20040;-77
2023/06/14 05:36:29;;;;;;;6.45;2.95;;;;;;;;;;4909331;29;20060;-77
2023/06/14 05:38:59;;;;;;;5.68;3.45;;;;;;;;;;4921865;29;20036;-76
2023/06/14 05:41:26;;;;;;;8.65;2.90;;;;;;;;;;4871088;29;20151;-76
2023/06/14 05:43:52;;;;;;;9.38;4.03;;;;;;;;;;4884162;29;20070;-77
2023/06/14 05:46:21;;;;;;;6.32;3.80;;;;;;;;;;4893161;29;20108;-77
2023/06/14 05:48:48;;;;;;;8.95;4.63;;;;;;;;;;4919377;29;20047;-77
2023/06/14 05:51:14;;;;;;;10.07;3.83;;;;;;;;;;4888852;29;20039;-77
2023/06/14 05:53:40;;;;;;;7.32;4.07;;;;;;;;;;4913482;29;20104;-77
2023/06/14 05:56:06;;;;;;;7.28;3.28;;;;;;;;;;4894028;29;20107;-77
2023/06/14 05:58:34;;;;;;;11.35;3.63;;;;;;;;;;4914286;29;20353;-78
2023/06/14 06:01:01;;;;;;;7.82;3.33;;;;;;;;;;4886643;29;20029;-77
2023/06/14 06:03:29;;;;;;;5.65;3.30;;;;;;;;;;4928276;29;20474;-77
2023/06/14 06:05:58;;;;;;;9.95;3.40;;;;;;;;;;4906589;29;20062;-77
2023/06/14 06:08:24;;;;;;;6.78;3.40;;;;;;;;;;4904232;29;20048;-77
2023/06/14 06:10:50;;;;;;;7.00;3.80;;;;;;;;;;4913973;29;20028;-77
2023/06/14 06:13:15;;;;;;;7.35;4.43;;;;;;;;;;4899497;29;20067;-77
2023/06/14 06:15:42;;;;;;;7.93;3.95;;;;;;;;;;4904491;29;20493;-77
2023/06/14 06:18:08;;;;;;;9.90;4.50;;;;;;;;;;4895860;29;20054;-78
2023/06/14 06:20:35;;;;;;;10.57;3.80;;;;;;;;;;4901259;29;20044;-77
2023/06/14 06:23:01;;;;;;;6.65;3.80;;;;;;;;;;4911592;29;20107;-77
2023/06/14 06:25:28;;;;;;;7.00;3.53;;;;;;;;;;4901380;29;20056;-78
2023/06/14 06:27:55;;;;;;;5.95;3.45;;;;;;;;;;4906980;29;20029;-77
2023/06/14 06:30:21;;;;;;;8.70;5.15;;;;;;;;;;4909815;29;20039;-77
2023/06/14 06:32:47;;;;;;;9.25;3.80;;;;;;;;;;4899611;29;20536;-77
2023/06/14 06:35:13;;;;;;;7.47;3.58;;;;;;;;;;4900497;29;20122;-78
2023/06/14 06:37:39;;;;;;;6.22;3.72;;;;;;;;;;4906445;29;20121;-79
2023/06/14 06:40:06;;;;;;;6.95;3.55;;;;;;;;;;4923987;29;20024;-78
2023/06/14 06:42:35;;;;;;;8.98;3.47;;;;;;;;;;4902592;29;20037;-77
2023/06/14 06:45:03;;;;;;;7.43;3.50;;;;;;;;;;4914350;29;20028;-78
2023/06/14 06:47:31;;;;;;;7.55;3.60;;;;;;;;;;4903587;29;20047;-78
2023/06/14 06:49:57;;;;;;;7.60;3.65;;;;;;;;;;4892834;29;20028;-77
2023/06/14 06:52:23;;;;;;;10.65;4.22;;;;;;;;;;4911044;29;20036;-78
2023/06/14 06:54:50;;;;;;;6.13;3.33;;;;;;;;;;4886931;29;20028;-78
2023/06/14 06:57:16;;;;;;;7.53;3.67;;;;;;;;;;4916602;29;20032;-78
2023/06/14 06:59:41;;;;;;;6.22;3.20;;;;;;;;;;4910178;29;20036;-79
2023/06/14 07:02:07;;;;;;;6.40;3.10;;;;;;;;;;4906605;29;20020;-78
2023/06/14 07:04:33;;;;;;;5.25;3.20;;;;;;;;;;4900655;29;20025;-78
2023/06/14 07:06:58;;;;;;;8.93;3.80;;;;;;;;;;4877215;29;20118;-79
2023/06/14 07:09:24;;;;;;;5.47;3.05;;;;;;;;;;4909640;29;20055;-77
2023/06/14 07:11:50;;;;;;;11.50;3.70;;;;;;;;;;4903826;29;20040;-77
2023/06/14 07:14:16;;;;;;;4.93;3.10;;;;;;;;;;4902974;29;20059;-77
2023/06/14 07:16:42;;;;;;;7.28;3.72;;;;;;;;;;4910389;29;20063;-78
2023/06/14 07:19:09;;;;;;;6.30;2.80;;;;;;;;;;4898818;29;20043;-77
2023/06/14 07:21:37;;;;;;;6.50;3.10;;;;;;;;;;4908735;29;20056;-78
2023/06/14 07:24:03;;;;;;;5.38;3.00;;;;;;;;;;4906371;29;20042;-76
2023/06/14 07:26:29;;;;;;;8.15;2.90;;;;;;;;;;4904964;29;20047;-78
2023/06/14 07:28:55;;;;;;;4.32;2.90;;;;;;;;;;4927204;29;20036;-77
2023/06/14 07:31:21;;;;;;;4.78;2.35;;;;;;;;;;4899878;29;20043;-78
2023/06/14 07:33:47;;;;;;;6.43;2.80;;;;;;;;;;4892207;29;20029;-77
2023/06/14 07:36:12;;;;;;;6.70;3.53;;;;;;;;;;4902750;29;20059;-78
2023/06/14 07:38:40;;;;;;;9.60;2.85;;;;;;;;;;4899614;29;20032;-78
2023/06/14 07:41:06;;;;;;;4.83;2.73;;;;;;;;;;4896058;29;20413;-78
2023/06/14 07:43:32;;;;;;;4.95;2.90;;;;;;;;;;4921229;29;20293;-78
2023/06/14 07:45:58;;;;;;;4.70;2.53;;;;;;;;;;4908042;29;20032;-77
2023/06/14 07:48:24;;;;;;;4.72;2.80;;;;;;;;;;4910952;29;20032;-78
2023/06/14 07:50:49;;;;;;;5.05;2.80;;;;;;;;;;4885704;29;20342;-78
2023/06/14 07:53:15;;;;;;;3.53;2.53;;;;;;;;;;4897946;29;20036;-77
2023/06/14 07:55:43;;;;;;;21.77;4.68;;;;;;;;;;4905253;29;20036;-77
2023/06/14 07:58:09;;;;;;;6.10;3.15;;;;;;;;;;4931495;29;20039;-77
2023/06/14 08:00:35;;;;;;;5.88;3.10;;;;;;;;;;4906740;29;20054;-77
2023/06/14 08:03:01;;;;;;;6.32;2.92;;;;;;;;;;4933944;29;20047;-77
2023/06/14 08:05:27;;;;;;;4.20;2.42;;;;;;;;;;4891383;29;20036;-77
2023/06/14 08:07:53;;;;;;;5.55;2.70;;;;;;;;;;4896827;29;20046;-78
2023/06/14 08:10:20;;;;;;;5.25;2.75;;;;;;;;;;4898174;29;20138;-77
2023/06/14 08:12:45;;;;;;;4.85;2.80;;;;;;;;;;4905209;29;20045;-77
2023/06/14 08:15:11;;;;;;;4.72;3.08;;;;;;;;;;4917945;29;20024;-78
2023/06/14 08:17:37;;;;;;;5.93;3.10;;;;;;;;;;4908034;29;20035;-78
2023/06/14 08:27:31;;;;;;;6.32;2.78;;;;;;;;;;4919651;29;20465;-78
2023/06/14 08:31:15;;;;;;;4.47;2.78;;;;;;;;;;4852403;29;20037;-79
2023/06/14 08:33:43;;;;;;;6.57;3.00;;;;;;;;;;4836139;29;20076;-78
2023/06/14 08:36:39;;;;;;;5.40;2.65;;;;;;;;;;4858020;29;20029;-78
2023/06/14 08:39:33;;;;;;;8.93;3.20;;;;;;;;;;4846545;29;20034;-80
2023/06/14 08:43:10;;;;;;;3.63;2.80;;;;;;;;;;4848117;29;20161;-79
2023/06/14 08:45:36;;;;;;;9.65;3.03;;;;;;;;;;4858384;29;20105;-79
2023/06/14 08:48:02;;;;;;;4.55;2.90;;;;;;;;;;4853744;29;20482;-78
2023/06/14 08:51:01;;;;;;;5.70;2.45;;;;;;;;;;4833794;29;20212;-80
2023/06/14 08:53:31;;;;;;;5.03;2.85;;;;;;;;;;4848867;29;20063;-78
2023/06/14 08:56:02;;;;;;;4.45;2.90;;;;;;;;;;4837817;29;20044;-79
2023/06/14 08:58:36;;;;;;;5.00;2.65;;;;;;;;;;4838637;29;20033;-79
2023/06/14 09:01:31;;;;;;;4.20;2.30;;;;;;;;;;4861886;29;20037;-79
2023/06/14 09:04:32;;;;;;;4.53;2.67;;;;;;;;;;4838115;29;20111;-79
2023/06/14 09:10:33;;;;;;;4.45;2.10;;;;;;;;;;4909922;29;20059;-78
2023/06/14 09:12:59;;;;;;;;;;;;;;;;;;4917883;29;20536;-78
2023/06/14 09:15:25;;;;;;;4.03;2.70;;;;;;;;;;4898730;29;19915;-78
2023/06/14 09:17:51;;;;;;;4.13;2.30;;;;;;;;;;4914547;29;20032;-77
2023/06/14 09:20:20;;;;;;;4.32;2.33;;;;;;;;;;4906906;29;20028;-78
2023/06/14 09:22:45;;;;;;;4.40;2.08;;;;;;;;;;4915160;29;20078;-77
2023/06/14 09:25:20;;;;;;;7.90;2.25;;;;;;;;;;4872466;29;20401;-78
2023/06/14 09:27:47;;;;;;;6.50;2.42;;;;;;;;;;4911187;29;20486;-78
2023/06/14 09:30:13;;;;;;;7.43;2.55;;;;;;;;;;4895404;29;20028;-77
2023/06/14 09:32:39;;;;;;;5.53;2.28;;;;;;;;;;4904176;29;20036;-78
2023/06/14 09:35:08;;;;;;;4.75;2.10;;;;;;;;;;4915583;29;20432;-78
2023/06/14 09:37:35;;;;;;;6.32;2.75;;;;;;;;;;4908484;29;20484;-78
2023/06/14 09:40:03;;;;;;;5.07;2.15;;;;;;;;;;4893344;29;20091;-78
2023/06/14 09:42:29;;;;;;;5.65;2.58;;;;;;;;;;4899401;29;20570;-78
2023/06/14 09:44:56;;;;;;;4.57;2.22;;;;;;;;;;4931851;29;20032;-78
2023/06/14 09:47:22;;;;;;;4.68;2.30;;;;;;;;;;4919822;29;20485;-77
2023/06/14 09:49:48;;;;;;;3.63;2.00;;;;;;;;;;4926257;29;20028;-78
2023/06/14 09:52:15;;;;;;;5.93;2.30;;;;;;;;;;4910443;29;20039;-78
2023/06/14 09:54:46;;;;;;;4.88;2.20;;;;;;;;;;4903211;29;20055;-78
2023/06/14 09:57:12;;;;;;;5.68;2.35;;;;;;;;;;4914917;29;20500;-78
2023/06/14 09:59:41;;;;;;;7.38;2.17;;;;;;;;;;4911634;29;20024;-78
2023/06/14 10:02:10;;;;;;;4.88;2.30;;;;;;;;;;4893580;29;20481;-78
2023/06/14 10:04:37;;;;;;;6.07;2.17;;;;;;;;;;4904036;29;20039;-79
2023/06/14 10:07:03;;;;;;;2.85;1.85;;;;;;;;;;4930071;29;20534;-78
2023/06/14 10:09:29;;;;;;;4.57;2.45;;;;;;;;;;4904370;29;20023;-78
2023/06/14 10:11:56;;;;;;;5.78;2.28;;;;;;;;;;4908808;29;20494;-78
2023/06/14 10:14:22;;;;;;;6.05;2.03;;;;;;;;;;4911243;29;20106;-78
2023/06/14 10:16:51;;;;;;;5.13;2.67;;;;;;;;;;4880264;29;20036;-77
2023/06/14 10:19:19;;;;;;;4.25;2.30;;;;;;;;;;4918491;29;20114;-78
2023/06/14 10:22:04;;;;;;;4.10;2.08;;;;;;;;;;4893817;29;20035;-77
2023/06/14 10:24:38;;;;;;;7.43;2.67;;;;;;;;;;4896381;29;20071;-78
2023/06/14 10:27:10;;;;;;;3.58;1.80;;;;;;;;;;4914532;29;20554;-78
2023/06/14 10:30:01;;;;;;;4.43;2.03;;;;;;;;;;4889428;29;20032;-77
2023/06/14 10:32:30;;;;;;;4.55;1.92;;;;;;;;;;4904367;29;20038;-77
2023/06/14 10:34:57;;;;;;;4.57;2.38;;;;;;;;;;4914299;29;20027;-78
2023/06/14 10:37:24;;;;;;;6.70;2.70;;;;;;;;;;4865859;29;20035;-78
2023/06/14 10:39:50;;;;;;;5.43;2.20;;;;;;;;;;4896198;29;20040;-79
2023/06/14 10:42:17;;;;;;;6.80;2.30;;;;;;;;;;4906130;29;20127;-79
2023/06/14 10:44:49;;;;;;;5.05;2.70;;;;;;;;;;4920883;23;20056;-79
2023/06/14 10:47:25;;;;;;;5.53;2.33;;;;;;;;;;4902358;29;20032;-79
2023/06/14 10:49:52;;;;;;;4.38;2.00;;;;;;;;;;4906780;29;20040;-78
2023/06/14 10:52:20;;;;;;;6.63;2.60;;;;;;;;;;4907813;29;20028;-76
2023/06/14 10:55:03;;;;;;;7.05;3.60;;;;;;;;;;4900445;29;20036;-77
2023/06/14 10:57:31;;;;;;;7.05;3.53;;;;;;;;;;4898421;29;20020;-77
2023/06/14 10:59:57;;;;;;;7.95;3.17;;;;;;;;;;4906658;29;20411;-78
2023/06/14 11:02:29;;;;;;;5.88;2.22;;;;;;;;;;4908969;29;20055;-77
2023/06/14 11:04:56;;;;;;;6.38;2.35;;;;;;;;;;4899906;29;20032;-77
2023/06/14 11:07:28;;;;;;;5.50;3.17;;;;;;;;;;4910496;29;20029;-76
2023/06/14 11:09:54;;;;;;;5.65;2.08;;;;;;;;;;4881757;29;20068;-77
2023/06/14 11:12:20;;;;;;;4.40;2.25;;;;;;;;;;4915601;29;20115;-77
2023/06/14 11:14:47;;;;;;;6.80;2.13;;;;;;;;;;4876425;29;20041;-78
2023/06/14 11:17:13;;;;;;;4.03;2.40;;;;;;;;;;4898268;29;20036;-77
2023/06/14 11:19:38;;;;;;;5.57;2.72;;;;;;;;;;4907268;29;20410;-78
2023/06/14 11:22:04;;;;;;;5.13;1.92;;;;;;;;;;4904428;29;20083;-77
2023/06/14 11:24:32;;;;;;;3.35;1.80;;;;;;;;;;4901906;29;20037;-76
2023/06/14 11:26:57;;;;;;;5.47;1.92;;;;;;;;;;4908510;29;20048;-77
2023/06/14 11:29:23;;;;;;;3.40;2.00;;;;;;;;;;4893488;29;20029;-78
2023/06/14 11:31:48;;;;;;;3.88;1.77;;;;;;;;;;4903410;29;20107;-77
2023/06/14 11:34:15;;;;;;;3.78;2.38;;;;;;;;;;4907351;29;20136;-78
2023/06/14 11:36:41;;;;;;;3.55;1.58;;;;;;;;;;4899889;29;20040;-78
2023/06/14 11:39:07;;;;;;;3.28;1.80;;;;;;;;;;4911187;29;20075;-78
2023/06/14 11:41:36;;;;;;;2.53;1.33;;;;;;;;;;4911868;29;20115;-78
2023/06/14 11:44:02;;;;;;;5.07;1.77;;;;;;;;;;4878489;29;20070;-79
2023/06/14 11:46:28;;;;;;;3.75;2.05;;;;;;;;;;4907393;29;20083;-77
2023/06/14 11:48:54;;;;;;;4.75;2.00;;;;;;;;;;4934316;29;20031;-76
2023/06/14 11:51:20;;;;;;;3.92;2.10;;;;;;;;;;4921714;29;20051;-78
2023/06/14 11:53:46;;;;;;;5.80;1.67;;;;;;;;;;4929630;29;20071;-78
2023/06/14 11:56:12;;;;;;;4.72;1.80;;;;;;;;;;4928305;29;20063;-77
2023/06/14 11:58:37;;;;;;;2.38;1.60;;;;;;;;;;4932705;29;20032;-78
2023/06/14 12:01:03;;;;;;;2.75;1.60;;;;;;;;;;4921658;29;20036;-76
2023/06/14 12:03:28;;;;;;;3.60;1.85;;;;;;;;;;4931985;29;20103;-77
2023/06/14 12:06:08;;;;;;;5.15;1.75;;;;;;;;;;4927040;29;20105;-77
2023/06/14 12:08:38;;;;;;;2.28;1.48;;;;;;;;;;4923186;29;20070;-76
2023/06/14 12:11:04;;;;;;;4.78;2.03;;;;;;;;;;4933535;29;20024;-76
2023/06/14 12:13:30;;;;;;;3.53;1.60;;;;;;;;;;4923406;29;20058;-78
2023/06/14 12:15:56;;;;;;;2.88;1.50;;;;;;;;;;4930217;29;20055;-77
2023/06/14 12:18:43;;;;;;;7.85;2.95;;;;;;;;;;4902139;29;20105;-77
2023/06/14 12:21:09;;;;;;;4.30;2.15;;;;;;;;;;4915382;29;20505;-78
2023/06/14 12:23:39;;;;;;;4.93;2.05;;;;;;;;;;4926310;29;20039;-77
2023/06/14 12:26:04;;;;;;;2.63;1.65;;;;;;;;;;4904334;29;20107;-76
2023/06/14 12:28:31;;;;;;;2.75;1.58;;;;;;;;;;4930238;29;20185;-76
2023/06/14 12:30:58;;;;;;;4.75;1.70;;;;;;;;;;4869749;29;20386;-77
2023/06/14 12:33:24;;;;;;;4.37;2.13;;;;;;;;;;4917460;29;20032;-76
2023/06/14 12:35:50;;;;;;;3.72;2.20;;;;;;;;;;4919998;29;20067;-77
2023/06/14 12:38:16;;;;;;;4.45;2.13;;;;;;;;;;4929639;29;20067;-78
2023/06/14 12:40:42;;;;;;;4.68;1.90;;;;;;;;;;4926020;29;20042;-78
2023/06/14 12:43:07;;;;;;;3.63;2.20;;;;;;;;;;4923086;29;20028;-78
2023/06/14 12:45:33;;;;;;;4.65;2.38;;;;;;;;;;4918147;29;20067;-79
2023/06/14 12:47:58;;;;;;;3.63;2.03;;;;;;;;;;4919608;29;20473;-77
2023/06/14 12:50:24;;;;;;;3.45;2.03;;;;;;;;;;4906704;29;20023;-78
2023/06/14 12:52:49;;;;;;;5.18;1.92;;;;;;;;;;4927575;29;20032;-78
2023/06/14 12:55:15;;;;;;;3.50;2.30;;;;;;;;;;4930246;29;20112;-78
2023/06/14 12:57:41;;;;;;;6.47;2.28;;;;;;;;;;4903486;29;20501;-76
2023/06/14 13:00:07;;;;;;;4.75;2.53;;;;;;;;;;4933225;29;20071;-78
2023/06/14 13:02:33;;;;;;;4.72;2.00;;;;;;;;;;4923913;29;20059;-78
2023/06/14 13:05:03;;;;;;;4.65;2.30;;;;;;;;;;4923837;29;20513;-78
2023/06/14 13:07:29;;;;;;;5.75;2.40;;;;;;;;;;4932544;29;20028;-77
2023/06/14 13:09:54;;;;;;;5.35;2.13;;;;;;;;;;4920785;29;20056;-76
2023/06/14 13:12:20;;;;;;;5.60;2.80;;;;;;;;;;4929119;29;20056;-78
2023/06/14 13:14:45;;;;;;;4.47;2.00;;;;;;;;;;4926431;29;20557;-76
2023/06/14 13:17:11;;;;;;;5.38;2.40;;;;;;;;;;4923819;29;20043;-78
2023/06/14 13:19:37;;;;;;;6.10;2.30;;;;;;;;;;4916662;29;20032;-77
2023/06/14 13:22:03;;;;;;;5.38;2.80;;;;;;;;;;4904865;29;20119;-77
2023/06/14 13:24:29;;;;;;;7.53;2.65;;;;;;;;;;4924644;29;20406;-79
2023/06/14 13:26:55;;;;;;;9.27;3.88;;;;;;;;;;4915244;29;20032;-78
2023/06/14 13:29:20;;;;;;;6.68;3.13;;;;;;;;;;4885805;29;20028;-78
2023/06/14 13:31:46;;;;;;;6.13;2.40;;;;;;;;;;4936936;29;20051;-77
2023/06/14 13:34:11;;;;;;;8.15;2.80;;;;;;;;;;4923859;29;20019;-76
2023/06/14 13:36:37;;;;;;;5.25;2.75;;;;;;;;;;4913081;29;20482;-78
2023/06/14 13:39:02;;;;;;;8.68;2.70;;;;;;;;;;4927776;29;20106;-76
2023/06/14 13:41:33;;;;;;;6.07;2.30;;;;;;;;;;4920915;29;20035;-78
2023/06/14 13:43:59;;;;;;;7.50;2.47;;;;;;;;;;4931580;29;20032;-79
2023/06/14 13:46:25;;;;;;;5.55;2.42;;;;;;;;;;4874606;29;20058;-78
2023/06/14 13:48:51;;;;;;;7.32;2.58;;;;;;;;;;4935925;29;20075;-77
2023/06/14 13:51:18;;;;;;;6.53;2.60;;;;;;;;;;4906152;29;20465;-75
2023/06/14 13:53:50;;;;;;;4.70;2.40;;;;;;;;;;4914908;29;20024;-77
2023/06/14 13:56:16;;;;;;;4.28;2.72;;;;;;;;;;4904035;29;20032;-77
2023/06/14 13:58:42;;;;;;;8.23;3.08;;;;;;;;;;4918116;29;20066;-77
2023/06/14 14:01:08;;;;;;;4.60;2.50;;;;;;;;;;4918373;29;20063;-78
2023/06/14 14:03:34;;;;;;;6.57;2.85;;;;;;;;;;4919122;29;20439;-78
2023/06/14 14:06:00;;;;;;;6.22;3.17;;;;;;;;;;4916522;29;20028;-79
2023/06/14 14:08:26;;;;;;;6.75;2.90;;;;;;;;;;4917350;29;20024;-77
2023/06/14 14:10:51;;;;;;;4.90;2.78;;;;;;;;;;4915936;29;20374;-76
2023/06/14 14:13:17;;;;;;;7.07;2.70;;;;;;;;;;4929720;29;20099;-76
2023/06/14 14:15:43;;;;;;;5.97;2.58;;;;;;;;;;4919421;29;20497;-79
2023/06/14 14:18:09;;;;;;;3.97;2.40;;;;;;;;;;4930565;29;20481;-78
2023/06/14 14:20:35;;;;;;;6.85;4.07;;;;;;;;;;4918495;29;20036;-76
2023/06/14 14:23:00;;;;;;;5.85;2.40;;;;;;;;;;4916380;29;20556;-77
2023/06/14 14:25:26;;;;;;;4.65;2.45;;;;;;;;;;4927546;29;20095;-78
2023/06/14 14:27:51;;;;;;;5.35;2.25;;;;;;;;;;4931779;29;20079;-79
2023/06/14 14:30:19;;;;;;;4.55;3.17;;;;;;;;;;4904888;29;20020;-78
2023/06/14 14:32:44;;;;;;;3.80;2.33;;;;;;;;;;4909911;29;20040;-79
2023/06/14 14:35:11;;;;;;;6.53;2.85;;;;;;;;;;4923217;29;20027;-79
2023/06/14 14:37:37;;;;;;;4.87;2.37;;;;;;;;;;4919219;29;20036;-78
2023/06/14 14:40:03;;;;;;;5.15;2.25;;;;;;;;;;4931214;29;20105;-79
2023/06/14 14:42:29;;;;;;;3.80;2.53;;;;;;;;;;4905919;29;20024;-79
2023/06/14 14:44:54;;;;;;;6.07;2.85;;;;;;;;;;4924101;29;20043;-76
2023/06/14 14:47:20;;;;;;;9.10;3.15;;;;;;;;;;4929581;29;20110;-78
2023/06/14 14:49:45;;;;;;;4.80;2.70;;;;;;;;;;4901902;29;20494;-77
2023/06/14 14:52:13;;;;;;;3.85;2.10;;;;;;;;;;4913062;29;20024;-77
2023/06/14 14:54:39;;;;;;;5.47;2.28;;;;;;;;;;4906788;29;20023;-79
2023/06/14 14:57:05;;;;;;;5.30;2.72;;;;;;;;;;4921847;29;20039;-78